El Dorado International Airport
SKBO : now visible

Airfield :











YOU CAN JOIN US ON...

 
LOGIN :

Register | Disclaimer

   EN    FR    IT 

 









Legend :    VFR   Marginal VFR   IFR   Intensive IFR   Very Intensive IFR
Visi :
Ceiling :
>= 8 km
>= 3000ft
5 to 8 km
1000 to 3000 ft
1500m to 5 km
500 to 1000 ft
800 to 1500m
200 to 500 ft
< 800m
< 200 ft
Symbols :   Thunderstorms  Fog  Heavy snow  Heavy precipitations  Wind > 20 kt







- Airport Elevation : 8361 ft
- IATA code : BOG


SKBO - El Dorado International

CURRENT METAR :
  • 180600Z VRB02KT 9999 SCT017 SCT080 14/12 A3035

EXPIRED METARs :
  • 180500Z 29004KT 9999 SCT020 SCT080 14/12 A3038
  • 180400Z 33003KT 290V350 9999 SCT020 BKN080 14/12 A3038
  • 180300Z VRB02KT 9999 SCT020 BKN080 13/11 A3038

TAF TAF SKBO
Valid from the 18 at 06:00 until the 19 at 06:00 UTC


180500Z 1806/1906 04004KT 9999 SCT020 SCT090
TEMPO 1806/1809 7000 -DZRA VCFG SCT018TCU
TEMPO 1809/1813 5000 BCFG DZ SCT013
BECMG 1814/1816 28010KT
TEMPO 1819/1823 7000 RADZ SCT017CB TX22/1818Z TN09/1811Z
SKED FIR / South America



MET'MAP, your aeronautical weather chart ! - Copyright ORBIFLY December 2007 - Disclaimer

ORBIFLY MET'MAP TEAM :

Programming & Development : Alexandra Zaïnal
Concept & Development : Baudouin d'Aumeries
Co-Development & Prog : Marc-Olivier Méhu
Technical & hardware support : Manuel Goepfert

Contact : metmap@orbifly.com




SOURCES & CREDITS :

   NOAA       Earth
Advisory